Marstein — LAQN — position and weather

sailwx.info

Track history (hours):
 
Tides and Currents Weather Stations Pressure Air Temp Water Temp Dewpoint Dewpoint Depression Visibility Wind Speed Wind Dir Waves Ship Positions

Marstein

Last reported at 2017-Jul-22 20:30 UTC. Time now 2017-Jul-22 20:43 UTC.
Position N 60°06' E 005°11'.

Length 87 m; draft 4.7 m.

Type: Passenger vessel. MMSI: 257317400.

Date/timePositionNaut miles runAvg speedWind from/ knotsBaromVisibWave heightAir tempDewpointWater temp
2017-Jul-22 20:30N 60°06' E 005°11'0 0.0
2017-Jul-22 20:00N 60°06' E 005°11'0 0.0
2017-Jul-22 19:30N 60°06' E 005°11'0 0.0
2017-Jul-22 19:00N 60°06' E 005°11'0 0.0
2017-Jul-22 18:30N 60°06' E 005°11'0 0.0
2017-Jul-22 18:00N 60°06' E 005°11'0 0.0
2017-Jul-22 17:30N 60°06' E 005°11'0 0.0
2017-Jul-22 17:00N 60°06' E 005°11'0 0.0
2017-Jul-22 16:30N 60°06' E 005°11'0 0.0
2017-Jul-22 16:00N 60°06' E 005°11'0 0.0
2017-Jul-22 15:30N 60°06' E 005°11'0 0.0
2017-Jul-22 15:00N 60°06' E 005°11'0 0.0
2017-Jul-22 14:00N 60°06' E 005°11'0 0.0
2017-Jul-22 13:30N 60°06' E 005°11'0 0.0
2017-Jul-22 13:00N 60°06' E 005°11'0 0.0
2017-Jul-22 12:30N 60°06' E 005°11'0 0.0
2017-Jul-22 12:00N 60°06' E 005°11'0 0.0
2017-Jul-22 11:30N 60°06' E 005°11'0 0.0
2017-Jul-22 11:00N 60°06' E 005°11'0 0.0
2017-Jul-22 10:30N 60°06' E 005°11'0 0.0
2017-Jul-22 10:00N 60°06' E 005°11'0 0.0
2017-Jul-22 09:30N 60°06' E 005°11'0 0.0
2017-Jul-22 09:00N 60°06' E 005°11'0 0.0
2017-Jul-22 08:30N 60°06' E 005°11'0 0.0
2017-Jul-22 08:00N 60°06' E 005°11'0 0.0
2017-Jul-22 07:30N 60°06' E 005°11'0 0.0
2017-Jul-22 07:00N 60°06' E 005°11'0 0.0
2017-Jul-22 06:30N 60°06' E 005°11'0 0.0
2017-Jul-22 06:00N 60°06' E 005°11'0 0.0
2017-Jul-22 05:30N 60°06' E 005°11'0 0.0
2017-Jul-22 05:00N 60°06' E 005°11'0 0.0
2017-Jul-22 04:30N 60°06' E 005°11'0 0.0
2017-Jul-22 04:00N 60°06' E 005°11'0 0.0
2017-Jul-22 03:30N 60°06' E 005°11'0 0.0
2017-Jul-22 03:00N 60°06' E 005°11'0 0.0
2017-Jul-22 02:30N 60°06' E 005°11'0 0.0
2017-Jul-22 02:00N 60°06' E 005°11'0 0.0
2017-Jul-22 01:30N 60°06' E 005°11'0 0.0
2017-Jul-22 01:00N 60°06' E 005°11'0 0.0
2017-Jul-22 00:30N 60°06' E 005°11'0 0.0
2017-Jul-22 00:00N 60°06' E 005°11'0 0.0
2017-Jul-21 23:30N 60°06' E 005°11'0 0.0
2017-Jul-21 23:00N 60°06' E 005°11'0 0.0
2017-Jul-21 22:30N 60°06' E 005°11'0 0.0
2017-Jul-21 22:00N 60°06' E 005°11'0 0.0
2017-Jul-21 21:30N 60°06' E 005°11'0 0.0
2017-Jul-21 21:00N 60°06' E 005°11'0 0.0
2017-Jul-21 20:30N 60°06' E 005°11'0 0.0
2017-Jul-21 20:00N 60°06' E 005°11'0 0.0
2017-Jul-21 19:30N 60°06' E 005°11'0 0.0
2017-Jul-21 19:00N 60°06' E 005°11'0 0.0
2017-Jul-21 18:30N 60°06' E 005°11'0 0.0
2017-Jul-21 18:00N 60°06' E 005°11'0 0.0
2017-Jul-21 17:30N 60°06' E 005°11'2 4.0
2017-Jul-21 17:00N 60°08' E 005°13'611.9
2017-Jul-21 16:30N 60°13' E 005°17'4 8.5
2017-Jul-21 16:00N 60°09' E 005°16'0 0.9
2017-Jul-21 15:30N 60°09' E 005°15'5 9.4
2017-Jul-21 15:00N 60°13' E 005°17'5 9.9
2017-Jul-21 14:29N 60°09' E 005°15'0 0.4
2017-Jul-21 14:00N 60°09' E 005°15'5 9.9
2017-Jul-21 13:30N 60°13' E 005°17'611.2
2017-Jul-21 13:00N 60°08' E 005°14'2 5.0
2017-Jul-21 12:30N 60°10' E 005°16'3 5.6
2017-Jul-21 12:00N 60°13' E 005°18'611.4
2017-Jul-21 11:30N 60°08' E 005°13'2 3.7
2017-Jul-21 11:00N 60°06' E 005°11'0 0.0
2017-Jul-21 10:30N 60°06' E 005°11'0 0.0
2017-Jul-21 10:00N 60°06' E 005°11'0 0.0
2017-Jul-21 09:30N 60°06' E 005°11'0 0.0
2017-Jul-21 09:00N 60°06' E 005°11'0 0.0
2017-Jul-21 08:30N 60°06' E 005°11'0 0.0
2017-Jul-21 08:00N 60°06' E 005°11'1 2.8
2017-Jul-21 07:30N 60°07' E 005°12'611.6
2017-Jul-21 07:00N 60°13' E 005°18'3 5.0
2017-Jul-21 06:30N 60°10' E 005°16'3 5.7
2017-Jul-21 06:00N 60°08' E 005°13'511.0
2017-Jul-21 05:30N 60°13' E 005°18'3 5.8
2017-Jul-21 05:00N 60°10' E 005°16'4 7.6
2017-Jul-21 04:30N 60°07' E 005°12'1 1.5
2017-Jul-21 03:58N 60°06' E 005°11'0 0.0
2017-Jul-21 03:28N 60°06' E 005°11'0 0.0
2017-Jul-21 02:58N 60°06' E 005°11'0 0.0
2017-Jul-21 02:28N 60°06' E 005°11'0 0.0
2017-Jul-21 01:58N 60°06' E 005°11'0 0.0
2017-Jul-21 01:28N 60°06' E 005°11'0 0.0
2017-Jul-21 00:58N 60°06' E 005°11'0 0.0
2017-Jul-21 00:28N 60°06' E 005°11'0 0.0
2017-Jul-20 23:58N 60°06' E 005°11'0 0.0
2017-Jul-20 23:28N 60°06' E 005°11'0 0.0
2017-Jul-20 22:58N 60°06' E 005°11'0 0.0
2017-Jul-20 22:28N 60°06' E 005°11'0 0.0
2017-Jul-20 21:58N 60°06' E 005°11'0 0.0
2017-Jul-20 21:28N 60°06' E 005°11'0 0.0
2017-Jul-20 20:58N 60°06' E 005°11'0 0.0
2017-Jul-20 20:28N 60°06' E 005°11'0 0.0
2017-Jul-20 19:58N 60°06' E 005°11'0 0.0
2017-Jul-20 19:28N 60°06' E 005°11'0 0.0
2017-Jul-20 18:58N 60°06' E 005°11'0 0.0
2017-Jul-20 18:28N 60°06' E 005°11'0 0.0
2017-Jul-20 17:58N 60°06' E 005°11'0 0.0
2017-Jul-20 17:28N 60°06' E 005°11'2 5.2
2017-Jul-20 17:00N 60°08' E 005°14'611.3
2017-Jul-20 16:30N 60°13' E 005°17'5 9.2
2017-Jul-20 16:00N 60°09' E 005°15'0 0.5
2017-Jul-20 15:30N 60°09' E 005°15'4 8.8
2017-Jul-20 15:00N 60°13' E 005°17'5 4.6
2017-Jul-20 14:00N 60°09' E 005°15'5 9.1
2017-Jul-20 13:30N 60°13' E 005°17'510.3
2017-Jul-20 13:00N 60°08' E 005°15'1 2.5
2017-Jul-20 12:30N 60°10' E 005°16'3 6.9
2017-Jul-20 12:00N 60°13' E 005°18'611.2
2017-Jul-20 11:30N 60°08' E 005°13'2 3.9
2017-Jul-20 11:01N 60°06' E 005°11'0 0.0
2017-Jul-20 10:30N 60°06' E 005°11'0 0.0
2017-Jul-20 10:00N 60°06' E 005°11'0 0.0
2017-Jul-20 09:30N 60°06' E 005°11'0 0.0
2017-Jul-20 09:00N 60°06' E 005°11'0 0.0
2017-Jul-20 08:30N 60°06' E 005°11'0 0.0
2017-Jul-20 08:01N 60°06' E 005°11'2 3.9
2017-Jul-20 07:30N 60°08' E 005°13'511.0
2017-Jul-20 07:01N 60°13' E 005°18'3 5.4
2017-Jul-20 06:30N 60°10' E 005°16'3 5.5
2017-Jul-20 06:00N 60°08' E 005°13'611.1
2017-Jul-20 05:30N 60°13' E 005°18'3 5.5
2017-Jul-20 05:01N 60°10' E 005°17'4 6.9
2017-Jul-20 04:30N 60°07' E 005°12'1 2.5
2017-Jul-20 03:59N 60°06' E 005°11'0 0.0
2017-Jul-20 03:29N 60°06' E 005°11'0 0.0
2017-Jul-20 02:59N 60°06' E 005°11'0 0.0
2017-Jul-20 02:29N 60°06' E 005°11'0 0.0
2017-Jul-20 01:59N 60°06' E 005°11'0 0.0
2017-Jul-20 01:29N 60°06' E 005°11'0 0.0
2017-Jul-20 00:59N 60°06' E 005°11'0 0.0
2017-Jul-20 00:29N 60°06' E 005°11'0 0.0
2017-Jul-19 23:59N 60°06' E 005°11'0 0.0
2017-Jul-19 23:26N 60°06' E 005°11'0 0.0
2017-Jul-19 22:59N 60°06' E 005°11'0 0.0
2017-Jul-19 22:29N 60°06' E 005°11'0 0.0
2017-Jul-19 21:59N 60°06' E 005°11'0 0.0
2017-Jul-19 21:29N 60°06' E 005°11'0 0.0
2017-Jul-19 20:59N 60°06' E 005°11'0 0.0
2017-Jul-19 20:29N 60°06' E 005°11'0 0.0
2017-Jul-19 19:59N 60°06' E 005°11'0 0.0
2017-Jul-19 19:29N 60°06' E 005°11'0 0.0
2017-Jul-19 18:59N 60°06' E 005°11'0 0.0
2017-Jul-19 18:29N 60°06' E 005°11'0 0.0
2017-Jul-19 17:59N 60°06' E 005°11'0 0.0
2017-Jul-19 17:29N 60°06' E 005°11'2 4.6
2017-Jul-19 17:00N 60°08' E 005°13'611.3
2017-Jul-19 16:30N 60°13' E 005°17'4 8.8
2017-Jul-19 16:00N 60°09' E 005°16'0 0.8
2017-Jul-19 15:30N 60°09' E 005°15'5 9.5
2017-Jul-19 15:00N 60°13' E 005°17'510.1
2017-Jul-19 14:30N 60°09' E 005°15'0 0.5
2017-Jul-19 14:00N 60°09' E 005°15'5 9.5
2017-Jul-19 13:30N 60°13' E 005°17'510.3
2017-Jul-19 13:00N 60°08' E 005°15'1 2.8
2017-Jul-19 12:30N 60°10' E 005°16'3 6.2
2017-Jul-19 12:00N 60°13' E 005°18'510.8
2017-Jul-19 11:30N 60°08' E 005°13'2 3.8
2017-Jul-19 11:00N 60°06' E 005°11'0 0.0
2017-Jul-19 10:30N 60°06' E 005°11'0 0.0
2017-Jul-19 10:00N 60°06' E 005°11'0 0.0
2017-Jul-19 09:29N 60°06' E 005°11'0 0.0
2017-Jul-19 09:00N 60°06' E 005°11'0 0.0
2017-Jul-19 08:30N 60°06' E 005°11'0 0.0
2017-Jul-19 08:00N 60°06' E 005°11'2 3.2
2017-Jul-19 07:30N 60°08' E 005°12'611.4
2017-Jul-19 07:00N 60°13' E 005°18'3 5.6
2017-Jul-19 06:30N 60°10' E 005°16'3 6.5
2017-Jul-19 06:01N 60°08' E 005°12'611.6
2017-Jul-19 05:30N 60°13' E 005°18'3 5.3
2017-Jul-19 05:00N 60°10' E 005°17'4 7.1
2017-Jul-19 04:30N 60°07' E 005°12'1 2.5
2017-Jul-19 04:00N 60°06' E 005°11'0 0.0
2017-Jul-19 03:30N 60°06' E 005°11'0 0.0
2017-Jul-19 03:00N 60°06' E 005°11'0 0.0
2017-Jul-19 02:30N 60°06' E 005°11'0 0.0
2017-Jul-19 02:00N 60°06' E 005°11'0 0.0
2017-Jul-19 01:30N 60°06' E 005°11'0 0.0
2017-Jul-19 01:00N 60°06' E 005°11'0 0.0
2017-Jul-19 00:30N 60°06' E 005°11'0 0.0
2017-Jul-19 00:00N 60°06' E 005°11'0 0.0
2017-Jul-18 23:30N 60°06' E 005°11'0 0.0
2017-Jul-18 23:00N 60°06' E 005°11'0 0.0
2017-Jul-18 22:30N 60°06' E 005°11'0 0.0
2017-Jul-18 22:00N 60°06' E 005°11'0 0.0
2017-Jul-18 21:30N 60°06' E 005°11'0 0.0
2017-Jul-18 21:00N 60°06' E 005°11'0 0.0
2017-Jul-18 20:30N 60°06' E 005°11'0 0.0
2017-Jul-18 20:00N 60°06' E 005°11'0 0.0
2017-Jul-18 19:30N 60°06' E 005°11'0 0.0
2017-Jul-18 19:00N 60°06' E 005°11'0 0.0
2017-Jul-18 18:30N 60°06' E 005°11'0 0.0
2017-Jul-18 18:00N 60°06' E 005°11'0 0.0
2017-Jul-18 17:30N 60°06' E 005°11'3 5.3
2017-Jul-18 17:00N 60°08' E 005°14'511.0
2017-Jul-18 16:30N 60°13' E 005°17'4 8.4
2017-Jul-18 16:00N 60°09' E 005°16'0 0.8
2017-Jul-18 15:30N 60°09' E 005°15'5 9.2
2017-Jul-18 15:00N 60°13' E 005°17'4 4.4
2017-Jul-18 14:00N 60°09' E 005°15'4 8.8
2017-Jul-18 13:30N 60°13' E 005°17'510.2
2017-Jul-18 12:59N 60°08' E 005°14'2 3.4
2017-Jul-18 12:30N 60°10' E 005°16'3 6.4
2017-Jul-18 11:59N 60°13' E 005°18'611.4
2017-Jul-18 11:30N 60°08' E 005°13'2 4.0
2017-Jul-18 11:00N 60°06' E 005°11'0 0.0
2017-Jul-18 10:30N 60°06' E 005°11'0 0.0
2017-Jul-18 10:00N 60°06' E 005°11'0 0.0
2017-Jul-18 09:30N 60°06' E 005°11'0 0.0
2017-Jul-18 09:00N 60°06' E 005°11'0 0.0
2017-Jul-18 08:30N 60°06' E 005°11'0 0.0
2017-Jul-18 08:00N 60°06' E 005°11'2 3.7
2017-Jul-18 07:29N 60°08' E 005°13'511.0
2017-Jul-18 07:00N 60°13' E 005°18'3 5.1
2017-Jul-18 06:30N 60°10' E 005°17'3 6.3
2017-Jul-18 06:00N 60°08' E 005°13'611.1
2017-Jul-18 05:30N 60°13' E 005°18'3 5.4
2017-Jul-18 05:00N 60°10' E 005°16'3 6.6
2017-Jul-18 04:28N 60°07' E 005°12'1 2.5
2017-Jul-18 03:57N 60°06' E 005°11'0 0.0
2017-Jul-18 03:27N 60°06' E 005°11'0 0.0
2017-Jul-18 02:57N 60°06' E 005°11'0 0.0
2017-Jul-18 02:27N 60°06' E 005°11'0 0.0
2017-Jul-18 01:57N 60°06' E 005°11'0 0.0
2017-Jul-18 01:27N 60°06' E 005°11'0 0.0
2017-Jul-18 00:57N 60°06' E 005°11'0 0.0
2017-Jul-18 00:27N 60°06' E 005°11'0 0.0
2017-Jul-17 23:57N 60°06' E 005°11'0 0.0
2017-Jul-17 23:27N 60°06' E 005°11'0 0.0
2017-Jul-17 22:57N 60°06' E 005°11'0 0.0
2017-Jul-17 22:27N 60°06' E 005°11'0 0.0
2017-Jul-17 21:57N 60°06' E 005°11'0 0.0
2017-Jul-17 21:27N 60°06' E 005°11'0 0.0
2017-Jul-17 20:57N 60°06' E 005°11'0 0.0
2017-Jul-17 20:27N 60°06' E 005°11'0 0.0
2017-Jul-17 19:57N 60°06' E 005°11'0 0.0
2017-Jul-17 19:27N 60°06' E 005°11'0 0.0
2017-Jul-17 18:57N 60°06' E 005°11'0 0.0
2017-Jul-17 18:27N 60°06' E 005°11'0 0.0
2017-Jul-17 17:57N 60°06' E 005°11'0 0.0
2017-Jul-17 17:27N 60°06' E 005°11'2 5.4
2017-Jul-17 17:00N 60°08' E 005°14'610.8
2017-Jul-17 16:30N 60°13' E 005°17'5 9.8
2017-Jul-17 16:00N 60°09' E 005°15'0 0.6
2017-Jul-17 15:30N 60°09' E 005°16'5 9.4
2017-Jul-17 15:00N 60°13' E 005°17'510.5
2017-Jul-17 14:30N 60°08' E 005°14'1 1.9
2017-Jul-17 14:00N 60°09' E 005°16'4 8.9
2017-Jul-17 13:30N 60°13' E 005°17'510.2
2017-Jul-17 13:00N 60°08' E 005°15'2 3.0
2017-Jul-17 12:30N 60°10' E 005°16'3 6.9
2017-Jul-17 12:00N 60°13' E 005°18'611.0
2017-Jul-17 11:30N 60°08' E 005°13'2 4.2
2017-Jul-17 11:00N 60°06' E 005°11'0 0.0
2017-Jul-17 10:30N 60°06' E 005°11'0 0.0
2017-Jul-17 10:00N 60°06' E 005°11'0 0.0
2017-Jul-17 09:27N 60°06' E 005°11'0 0.0
2017-Jul-17 09:00N 60°06' E 005°11'0 0.0
2017-Jul-17 08:30N 60°06' E 005°11'0 0.0
2017-Jul-17 07:57N 60°06' E 005°11'2 4.6
2017-Jul-17 07:30N 60°08' E 005°13'611.2
2017-Jul-17 07:00N 60°13' E 005°18'3 6.7
2017-Jul-17 06:30N 60°10' E 005°16'3 5.1
2017-Jul-17 06:00N 60°08' E 005°13'511.0
2017-Jul-17 05:30N 60°13' E 005°18'3 5.7
2017-Jul-17 05:00N 60°10' E 005°17'4 7.7
2017-Jul-17 04:30N 60°07' E 005°12'1 1.8
2017-Jul-17 03:58N 60°06' E 005°11'0 0.0
2017-Jul-17 03:28N 60°06' E 005°11'0 0.0
2017-Jul-17 02:58N 60°06' E 005°11'0 0.0
2017-Jul-17 02:28N 60°06' E 005°11'0 0.0
2017-Jul-17 01:58N 60°06' E 005°11'0 0.0
2017-Jul-17 01:28N 60°06' E 005°11'0 0.0
2017-Jul-17 00:58N 60°06' E 005°11'0 0.0
2017-Jul-17 00:28N 60°06' E 005°11'0 0.0
2017-Jul-16 23:58N 60°06' E 005°11'0 0.0
2017-Jul-16 23:28N 60°06' E 005°11'0 0.0
2017-Jul-16 22:58N 60°06' E 005°11'0 0.0
2017-Jul-16 22:28N 60°06' E 005°11'0 0.0
2017-Jul-16 21:58N 60°06' E 005°11'0 0.0
2017-Jul-16 21:28N 60°06' E 005°11'0 0.0
2017-Jul-16 20:58N 60°06' E 005°11'0 0.0
2017-Jul-16 20:28N 60°06' E 005°11'0 0.0
2017-Jul-16 19:58N 60°06' E 005°11'0 0.0
2017-Jul-16 19:28N 60°06' E 005°11'0 0.0
2017-Jul-16 18:58N 60°06' E 005°11'1 2.7
2017-Jul-16 18:30N 60°07' E 005°12'611.7
2017-Jul-16 18:00N 60°12' E 005°18'3 5.3
2017-Jul-16 17:30N 60°10' E 005°16'2 4.4
2017-Jul-16 17:00N 60°08' E 005°14'611.5
2017-Jul-16 16:30N 60°13' E 005°17'4 8.5
2017-Jul-16 16:01N 60°09' E 005°16'1 1.4
2017-Jul-16 15:30N 60°09' E 005°15'5 9.9
2017-Jul-16 15:00N 60°13' E 005°17'510.7
2017-Jul-16 14:30N 60°08' E 005°14'1 2.7
2017-Jul-16 14:00N 60°09' E 005°16'4 8.4
2017-Jul-16 13:30N 60°13' E 005°17'510.3
2017-Jul-16 13:00N 60°08' E 005°14'2 5.0
2017-Jul-16 12:30N 60°07' E 005°11'0 0.6
2017-Jul-16 12:00N 60°06' E 005°11'0 0.0
2017-Jul-16 11:30N 60°06' E 005°11'0 0.0
2017-Jul-16 11:00N 60°06' E 005°11'0 0.0
2017-Jul-16 10:30N 60°06' E 005°11'0 0.0
2017-Jul-16 10:00N 60°06' E 005°11'0 0.0
2017-Jul-16 09:27N 60°06' E 005°11'0 0.0
2017-Jul-16 09:00N 60°06' E 005°11'0 0.0
2017-Jul-16 08:30N 60°06' E 005°11'0 0.0
2017-Jul-16 08:00N 60°06' E 005°11'0 0.0
2017-Jul-16 07:30N 60°06' E 005°11'0 0.0
2017-Jul-16 07:00N 60°06' E 005°11'0 0.0
2017-Jul-16 06:30N 60°06' E 005°11'0 0.0
2017-Jul-16 06:00N 60°06' E 005°11'0 0.0
2017-Jul-16 05:30N 60°06' E 005°11'0 0.0
2017-Jul-16 05:00N 60°06' E 005°11'0 0.0
2017-Jul-16 04:30N 60°06' E 005°11'0 0.0
2017-Jul-16 04:00N 60°06' E 005°11'0 0.0
2017-Jul-16 03:30N 60°06' E 005°11'0 0.0
2017-Jul-16 03:00N 60°06' E 005°11'0 0.0
2017-Jul-16 02:30N 60°06' E 005°11'0 0.0
2017-Jul-16 02:00N 60°06' E 005°11'0 0.0
2017-Jul-16 01:30N 60°06' E 005°11'0 0.0
2017-Jul-16 01:00N 60°06' E 005°11'0 0.0
2017-Jul-16 00:30N 60°06' E 005°11'0 0.0
2017-Jul-16 00:00N 60°06' E 005°11'0 0.0
2017-Jul-15 23:30N 60°06' E 005°11'0 0.0
2017-Jul-15 23:00N 60°06' E 005°11'0 0.0
2017-Jul-15 22:30N 60°06' E 005°11'0 0.0
2017-Jul-15 22:00N 60°06' E 005°11'0 0.0
2017-Jul-15 21:30N 60°06' E 005°11'0 0.0
2017-Jul-15 21:00N 60°06' E 005°11'0 0.0
2017-Jul-15 20:30N 60°06' E 005°11'0 0.0
2017-Jul-15 20:00N 60°06' E 005°11'0 0.0
2017-Jul-15 19:30N 60°06' E 005°11'0 0.0
2017-Jul-15 19:00N 60°06' E 005°11'0 0.0
2017-Jul-15 18:30N 60°06' E 005°11'0 0.0
2017-Jul-15 18:00N 60°06' E 005°11'0 0.0
2017-Jul-15 17:30N 60°06' E 005°11'0 0.0
2017-Jul-15 17:00N 60°06' E 005°11'0 0.0
2017-Jul-15 16:30N 60°06' E 005°11'0 0.0
2017-Jul-15 16:00N 60°06' E 005°11'0 0.0
2017-Jul-15 15:30N 60°06' E 005°11'0 0.0
2017-Jul-15 15:00N 60°06' E 005°11'0 0.0
2017-Jul-15 14:00N 60°06' E 005°11'0 0.0
2017-Jul-15 13:30N 60°06' E 005°11'0 0.0
2017-Jul-15 13:00N 60°06' E 005°11'0 0.0
2017-Jul-15 12:30N 60°06' E 005°11'0 0.0
2017-Jul-15 12:00N 60°06' E 005°11'0 0.0
2017-Jul-15 11:30N 60°06' E 005°11'0 0.0
2017-Jul-15 11:00N 60°06' E 005°11'0 0.0
2017-Jul-15 10:30N 60°06' E 005°11'0 0.0
2017-Jul-15 10:00N 60°06' E 005°11'0 0.0
2017-Jul-15 09:30N 60°06' E 005°11'0 0.0
2017-Jul-15 09:00N 60°06' E 005°11'0 0.0
2017-Jul-15 08:30N 60°06' E 005°11'0 0.0
2017-Jul-15 08:00N 60°06' E 005°11'0 0.0
2017-Jul-15 07:30N 60°06' E 005°11'0 0.0
2017-Jul-15 07:00N 60°06' E 005°11'0 0.0
2017-Jul-15 06:30N 60°06' E 005°11'0 0.0
2017-Jul-15 06:00N 60°06' E 005°11'0 0.0
2017-Jul-15 05:30N 60°06' E 005°11'0 0.0
2017-Jul-15 05:00N 60°06' E 005°11'0 0.0
2017-Jul-15 04:30N 60°06' E 005°11'0 0.0
2017-Jul-15 04:00N 60°06' E 005°11'0 0.0
2017-Jul-15 03:30N 60°06' E 005°11'0 0.0
2017-Jul-15 03:00N 60°06' E 005°11'0 0.0
2017-Jul-15 02:30N 60°06' E 005°11'0 0.0
2017-Jul-15 02:00N 60°06' E 005°11'0 0.0
2017-Jul-15 01:30N 60°06' E 005°11'0 0.0
2017-Jul-15 01:00N 60°06' E 005°11'0 0.0
2017-Jul-15 00:30N 60°06' E 005°11'0 0.0
2017-Jul-15 00:00N 60°06' E 005°11'0 0.0
2017-Jul-14 23:30N 60°06' E 005°11'0 0.0
2017-Jul-14 23:00N 60°06' E 005°11'0 0.0
2017-Jul-14 22:30N 60°06' E 005°11'0 0.0
2017-Jul-14 22:00N 60°06' E 005°11'0 0.0
2017-Jul-14 21:30N 60°06' E 005°11'0 0.0
2017-Jul-14 21:00N 60°06' E 005°11'0 0.0
2017-Jul-14 20:30N 60°06' E 005°11'0 0.0
2017-Jul-14 20:00N 60°06' E 005°11'0 0.0
2017-Jul-14 19:30N 60°06' E 005°11'0 0.0
2017-Jul-14 19:00N 60°06' E 005°11'0 0.0
2017-Jul-14 18:30N 60°06' E 005°11'0 0.0
2017-Jul-14 18:00N 60°06' E 005°11'0 0.0
2017-Jul-14 17:30N 60°06' E 005°11'2 4.8
2017-Jul-14 17:00N 60°08' E 005°14'611.1
2017-Jul-14 16:30N 60°13' E 005°17'4 8.3
2017-Jul-14 16:00N 60°09' E 005°16'1 1.8
2017-Jul-14 15:30N 60°09' E 005°15'5 9.8
2017-Jul-14 15:00N 60°13' E 005°17'510.1
2017-Jul-14 14:30N 60°09' E 005°15'0 0.8
2017-Jul-14 14:00N 60°09' E 005°15'2 0.7
2017-Jul-14 11:28N 60°08' E 005°12'2 3.4
2017-Jul-14 11:00N 60°06' E 005°11'0 0.0
2017-Jul-14 10:29N 60°06' E 005°11'0 0.0
2017-Jul-14 09:59N 60°06' E 005°11'0 0.0
2017-Jul-14 09:29N 60°06' E 005°11'0 0.0
2017-Jul-14 08:59N 60°06' E 005°11'0 0.0
2017-Jul-14 08:29N 60°06' E 005°11'0 0.0
2017-Jul-14 07:59N 60°06' E 005°11'2 3.9
2017-Jul-14 07:30N 60°08' E 005°13'510.9
2017-Jul-14 07:00N 60°13' E 005°18'3 5.5
2017-Jul-14 06:30N 60°10' E 005°16'3 5.7
2017-Jul-14 06:00N 60°08' E 005°13'611.0
2017-Jul-14 05:30N 60°13' E 005°18'3 5.5
2017-Jul-14 05:00N 60°10' E 005°17'4 7.2
2017-Jul-14 04:30N 60°07' E 005°12'1 2.6
2017-Jul-14 04:00N 60°06' E 005°11'0 0.0
2017-Jul-14 03:28N 60°06' E 005°11'0 0.0
2017-Jul-14 02:58N 60°06' E 005°11'0 0.0
2017-Jul-14 02:28N 60°06' E 005°11'0 0.0
2017-Jul-14 01:58N 60°06' E 005°11'0 0.0
2017-Jul-14 01:28N 60°06' E 005°11'0 0.0
2017-Jul-14 00:58N 60°06' E 005°11'0 0.0
2017-Jul-14 00:28N 60°06' E 005°11'0 0.0
2017-Jul-13 23:58N 60°06' E 005°11'0 0.0
2017-Jul-13 23:28N 60°06' E 005°11'0 0.0
2017-Jul-13 22:58N 60°06' E 005°11'0 0.0
2017-Jul-13 22:25N 60°06' E 005°11'0 0.0
2017-Jul-13 21:58N 60°06' E 005°11'0 0.0
2017-Jul-13 21:28N 60°06' E 005°11'0 0.0
2017-Jul-13 20:58N 60°06' E 005°11'0 0.0
2017-Jul-13 20:28N 60°06' E 005°11'0 0.0
2017-Jul-13 19:58N 60°06' E 005°11'0 0.0
2017-Jul-13 19:28N 60°06' E 005°11'0 0.0
2017-Jul-13 18:58N 60°06' E 005°11'0 0.0
2017-Jul-13 18:28N 60°06' E 005°11'0 0.0
2017-Jul-13 17:58N 60°06' E 005°11'0 0.0
2017-Jul-13 17:28N 60°06' E 005°11'3 5.4
2017-Jul-13 17:00N 60°08' E 005°14'510.9
2017-Jul-13 16:30N 60°13' E 005°17'4 8.5
2017-Jul-13 16:00N 60°09' E 005°16'1 1.3
2017-Jul-13 15:30N 60°09' E 005°15'5 9.6
2017-Jul-13 15:00N 60°13' E 005°17'510.1
2017-Jul-13 14:30N 60°09' E 005°15'1 2.6
2017-Jul-13 13:59N 60°10' E 005°16'4 7.5
2017-Jul-13 13:30N 60°13' E 005°17'611.4
2017-Jul-13 13:00N 60°08' E 005°14'2 4.3
2017-Jul-13 12:30N 60°10' E 005°16'3 6.5
2017-Jul-13 12:00N 60°13' E 005°18'611.1
2017-Jul-13 11:30N 60°08' E 005°13'2 3.7
2017-Jul-13 10:59N 60°06' E 005°11'0 0.0
2017-Jul-13 10:31N 60°06' E 005°11'0 0.0
2017-Jul-13 10:00N 60°06' E 005°11'0 0.0
2017-Jul-13 09:30N 60°06' E 005°11'0 0.0
2017-Jul-13 09:00N 60°06' E 005°11'0 0.0
2017-Jul-13 08:30N 60°06' E 005°11'0 0.0
2017-Jul-13 08:00N 60°06' E 005°11'2 3.5
2017-Jul-13 07:30N 60°08' E 005°13'611.2
2017-Jul-13 07:00N 60°13' E 005°18'3 5.2
2017-Jul-13 06:30N 60°10' E 005°17'3 6.3
2017-Jul-13 06:00N 60°08' E 005°13'611.2
2017-Jul-13 05:30N 60°13' E 005°18'3 5.3
2017-Jul-13 05:00N 60°10' E 005°16'3 6.8
2017-Jul-13 04:30N 60°07' E 005°12'1 2.5
2017-Jul-13 03:59N 60°06' E 005°11'0 0.0
2017-Jul-13 03:29N 60°06' E 005°11'0 0.0
2017-Jul-13 02:59N 60°06' E 005°11'0 0.0
2017-Jul-13 02:29N 60°06' E 005°11'0 0.0
2017-Jul-13 01:56N 60°06' E 005°11'0 0.0
2017-Jul-13 01:29N 60°06' E 005°11'0 0.0
2017-Jul-13 00:59N 60°06' E 005°11'0 0.0
2017-Jul-13 00:29N 60°06' E 005°11'0 0.0
2017-Jul-12 23:59N 60°06' E 005°11'0 0.0
2017-Jul-12 23:29N 60°06' E 005°11'0 0.0
2017-Jul-12 22:59N 60°06' E 005°11'0 0.0
2017-Jul-12 22:29N 60°06' E 005°11'0 0.0
2017-Jul-12 21:59N 60°06' E 005°11'0 0.0
2017-Jul-12 21:29N 60°06' E 005°11'0 0.0
2017-Jul-12 20:59N 60°06' E 005°11'  
Track history (hours):
 
Tides and Currents Weather Stations Pressure Air Temp Water Temp Dewpoint Dewpoint Depression Visibility Wind Speed Wind Dir Waves Ship Positions

Marstein

Last reported at 2017-Jul-22 20:30 UTC. Time now 2017-Jul-22 20:43 UTC.
Position N 60°06' E 005°11'.

Length 87 m; draft 4.7 m.

Type: Passenger vessel. MMSI: 257317400.

Date/timePositionNaut miles runAvg speedWind from/ knotsBaromVisibWave heightAir tempDewpointWater temp
2017-Jul-22 20:30N 60°06' E 005°11'0 0.0
2017-Jul-22 20:00N 60°06' E 005°11'0 0.0
2017-Jul-22 19:30N 60°06' E 005°11'0 0.0
2017-Jul-22 19:00N 60°06' E 005°11'0 0.0
2017-Jul-22 18:30N 60°06' E 005°11'0 0.0
2017-Jul-22 18:00N 60°06' E 005°11'0 0.0
2017-Jul-22 17:30N 60°06' E 005°11'0 0.0
2017-Jul-22 17:00N 60°06' E 005°11'0 0.0
2017-Jul-22 16:30N 60°06' E 005°11'0 0.0
2017-Jul-22 16:00N 60°06' E 005°11'0 0.0
2017-Jul-22 15:30N 60°06' E 005°11'0 0.0
2017-Jul-22 15:00N 60°06' E 005°11'0 0.0
2017-Jul-22 14:00N 60°06' E 005°11'0 0.0
2017-Jul-22 13:30N 60°06' E 005°11'0 0.0
2017-Jul-22 13:00N 60°06' E 005°11'0 0.0
2017-Jul-22 12:30N 60°06' E 005°11'0 0.0
2017-Jul-22 12:00N 60°06' E 005°11'0 0.0
2017-Jul-22 11:30N 60°06' E 005°11'0 0.0
2017-Jul-22 11:00N 60°06' E 005°11'0 0.0
2017-Jul-22 10:30N 60°06' E 005°11'0 0.0
2017-Jul-22 10:00N 60°06' E 005°11'0 0.0
2017-Jul-22 09:30N 60°06' E 005°11'0 0.0
2017-Jul-22 09:00N 60°06' E 005°11'0 0.0
2017-Jul-22 08:30N 60°06' E 005°11'0 0.0
2017-Jul-22 08:00N 60°06' E 005°11'0 0.0
2017-Jul-22 07:30N 60°06' E 005°11'0 0.0
2017-Jul-22 07:00N 60°06' E 005°11'0 0.0
2017-Jul-22 06:30N 60°06' E 005°11'0 0.0
2017-Jul-22 06:00N 60°06' E 005°11'0 0.0
2017-Jul-22 05:30N 60°06' E 005°11'0 0.0
2017-Jul-22 05:00N 60°06' E 005°11'0 0.0
2017-Jul-22 04:30N 60°06' E 005°11'0 0.0
2017-Jul-22 04:00N 60°06' E 005°11'0 0.0
2017-Jul-22 03:30N 60°06' E 005°11'0 0.0
2017-Jul-22 03:00N 60°06' E 005°11'0 0.0
2017-Jul-22 02:30N 60°06' E 005°11'0 0.0
2017-Jul-22 02:00N 60°06' E 005°11'0 0.0
2017-Jul-22 01:30N 60°06' E 005°11'0 0.0
2017-Jul-22 01:00N 60°06' E 005°11'0 0.0
2017-Jul-22 00:30N 60°06' E 005°11'0 0.0
2017-Jul-22 00:00N 60°06' E 005°11'0 0.0
2017-Jul-21 23:30N 60°06' E 005°11'0 0.0
2017-Jul-21 23:00N 60°06' E 005°11'0 0.0
2017-Jul-21 22:30N 60°06' E 005°11'0 0.0
2017-Jul-21 22:00N 60°06' E 005°11'0 0.0
2017-Jul-21 21:30N 60°06' E 005°11'0 0.0
2017-Jul-21 21:00N 60°06' E 005°11'0 0.0
2017-Jul-21 20:30N 60°06' E 005°11'0 0.0
2017-Jul-21 20:00N 60°06' E 005°11'0 0.0
2017-Jul-21 19:30N 60°06' E 005°11'0 0.0
2017-Jul-21 19:00N 60°06' E 005°11'0 0.0
2017-Jul-21 18:30N 60°06' E 005°11'0 0.0
2017-Jul-21 18:00N 60°06' E 005°11'0 0.0
2017-Jul-21 17:30N 60°06' E 005°11'2 4.0
2017-Jul-21 17:00N 60°08' E 005°13'611.9
2017-Jul-21 16:30N 60°13' E 005°17'4 8.5
2017-Jul-21 16:00N 60°09' E 005°16'0 0.9
2017-Jul-21 15:30N 60°09' E 005°15'5 9.4
2017-Jul-21 15:00N 60°13' E 005°17'5 9.9
2017-Jul-21 14:29N 60°09' E 005°15'0 0.4
2017-Jul-21 14:00N 60°09' E 005°15'5 9.9
2017-Jul-21 13:30N 60°13' E 005°17'611.2
2017-Jul-21 13:00N 60°08' E 005°14'2 5.0
2017-Jul-21 12:30N 60°10' E 005°16'3 5.6
2017-Jul-21 12:00N 60°13' E 005°18'611.4
2017-Jul-21 11:30N 60°08' E 005°13'2 3.7
2017-Jul-21 11:00N 60°06' E 005°11'0 0.0
2017-Jul-21 10:30N 60°06' E 005°11'0 0.0
2017-Jul-21 10:00N 60°06' E 005°11'0 0.0
2017-Jul-21 09:30N 60°06' E 005°11'0 0.0
2017-Jul-21 09:00N 60°06' E 005°11'0 0.0
2017-Jul-21 08:30N 60°06' E 005°11'0 0.0
2017-Jul-21 08:00N 60°06' E 005°11'1 2.8
2017-Jul-21 07:30N 60°07' E 005°12'611.6
2017-Jul-21 07:00N 60°13' E 005°18'3 5.0
2017-Jul-21 06:30N 60°10' E 005°16'3 5.7
2017-Jul-21 06:00N 60°08' E 005°13'511.0
2017-Jul-21 05:30N 60°13' E 005°18'3 5.8
2017-Jul-21 05:00N 60°10' E 005°16'4 7.6
2017-Jul-21 04:30N 60°07' E 005°12'1 1.5
2017-Jul-21 03:58N 60°06' E 005°11'0 0.0
2017-Jul-21 03:28N 60°06' E 005°11'0 0.0
2017-Jul-21 02:58N 60°06' E 005°11'0 0.0
2017-Jul-21 02:28N 60°06' E 005°11'0 0.0
2017-Jul-21 01:58N 60°06' E 005°11'0 0.0
2017-Jul-21 01:28N 60°06' E 005°11'0 0.0
2017-Jul-21 00:58N 60°06' E 005°11'0 0.0
2017-Jul-21 00:28N 60°06' E 005°11'0 0.0
2017-Jul-20 23:58N 60°06' E 005°11'0 0.0
2017-Jul-20 23:28N 60°06' E 005°11'0 0.0
2017-Jul-20 22:58N 60°06' E 005°11'0 0.0
2017-Jul-20 22:28N 60°06' E 005°11'0 0.0
2017-Jul-20 21:58N 60°06' E 005°11'0 0.0
2017-Jul-20 21:28N 60°06' E 005°11'0 0.0
2017-Jul-20 20:58N 60°06' E 005°11'0 0.0
2017-Jul-20 20:28N 60°06' E 005°11'0 0.0
2017-Jul-20 19:58N 60°06' E 005°11'0 0.0
2017-Jul-20 19:28N 60°06' E 005°11'0 0.0
2017-Jul-20 18:58N 60°06' E 005°11'0 0.0
2017-Jul-20 18:28N 60°06' E 005°11'0 0.0
2017-Jul-20 17:58N 60°06' E 005°11'0 0.0
2017-Jul-20 17:28N 60°06' E 005°11'2 5.2
2017-Jul-20 17:00N 60°08' E 005°14'611.3
2017-Jul-20 16:30N 60°13' E 005°17'5 9.2
2017-Jul-20 16:00N 60°09' E 005°15'0 0.5
2017-Jul-20 15:30N 60°09' E 005°15'4 8.8
2017-Jul-20 15:00N 60°13' E 005°17'5 4.6
2017-Jul-20 14:00N 60°09' E 005°15'5 9.1
2017-Jul-20 13:30N 60°13' E 005°17'510.3
2017-Jul-20 13:00N 60°08' E 005°15'1 2.5
2017-Jul-20 12:30N 60°10' E 005°16'3 6.9
2017-Jul-20 12:00N 60°13' E 005°18'611.2
2017-Jul-20 11:30N 60°08' E 005°13'2 3.9
2017-Jul-20 11:01N 60°06' E 005°11'0 0.0
2017-Jul-20 10:30N 60°06' E 005°11'0 0.0
2017-Jul-20 10:00N 60°06' E 005°11'0 0.0
2017-Jul-20 09:30N 60°06' E 005°11'0 0.0
2017-Jul-20 09:00N 60°06' E 005°11'0 0.0
2017-Jul-20 08:30N 60°06' E 005°11'0 0.0
2017-Jul-20 08:01N 60°06' E 005°11'2 3.9
2017-Jul-20 07:30N 60°08' E 005°13'511.0
2017-Jul-20 07:01N 60°13' E 005°18'3 5.4
2017-Jul-20 06:30N 60°10' E 005°16'3 5.5
2017-Jul-20 06:00N 60°08' E 005°13'611.1
2017-Jul-20 05:30N 60°13' E 005°18'3 5.5
2017-Jul-20 05:01N 60°10' E 005°17'4 6.9
2017-Jul-20 04:30N 60°07' E 005°12'1 2.5
2017-Jul-20 03:59N 60°06' E 005°11'0 0.0
2017-Jul-20 03:29N 60°06' E 005°11'0 0.0
2017-Jul-20 02:59N 60°06' E 005°11'0 0.0
2017-Jul-20 02:29N 60°06' E 005°11'0 0.0
2017-Jul-20 01:59N 60°06' E 005°11'0 0.0
2017-Jul-20 01:29N 60°06' E 005°11'0 0.0
2017-Jul-20 00:59N 60°06' E 005°11'0 0.0
2017-Jul-20 00:29N 60°06' E 005°11'0 0.0
2017-Jul-19 23:59N 60°06' E 005°11'0 0.0
2017-Jul-19 23:26N 60°06' E 005°11'0 0.0
2017-Jul-19 22:59N 60°06' E 005°11'0 0.0
2017-Jul-19 22:29N 60°06' E 005°11'0 0.0
2017-Jul-19 21:59N 60°06' E 005°11'0 0.0
2017-Jul-19 21:29N 60°06' E 005°11'0 0.0
2017-Jul-19 20:59N 60°06' E 005°11'0 0.0
2017-Jul-19 20:29N 60°06' E 005°11'0 0.0
2017-Jul-19 19:59N 60°06' E 005°11'0 0.0
2017-Jul-19 19:29N 60°06' E 005°11'0 0.0
2017-Jul-19 18:59N 60°06' E 005°11'0 0.0
2017-Jul-19 18:29N 60°06' E 005°11'0 0.0
2017-Jul-19 17:59N 60°06' E 005°11'0 0.0
2017-Jul-19 17:29N 60°06' E 005°11'2 4.6
2017-Jul-19 17:00N 60°08' E 005°13'611.3
2017-Jul-19 16:30N 60°13' E 005°17'4 8.8
2017-Jul-19 16:00N 60°09' E 005°16'0 0.8
2017-Jul-19 15:30N 60°09' E 005°15'5 9.5
2017-Jul-19 15:00N 60°13' E 005°17'510.1
2017-Jul-19 14:30N 60°09' E 005°15'0 0.5
2017-Jul-19 14:00N 60°09' E 005°15'5 9.5
2017-Jul-19 13:30N 60°13' E 005°17'510.3
2017-Jul-19 13:00N 60°08' E 005°15'1 2.8
2017-Jul-19 12:30N 60°10' E 005°16'3 6.2
2017-Jul-19 12:00N 60°13' E 005°18'510.8
2017-Jul-19 11:30N 60°08' E 005°13'2 3.8
2017-Jul-19 11:00N 60°06' E 005°11'0 0.0
2017-Jul-19 10:30N 60°06' E 005°11'0 0.0
2017-Jul-19 10:00N 60°06' E 005°11'0 0.0
2017-Jul-19 09:29N 60°06' E 005°11'0 0.0
2017-Jul-19 09:00N 60°06' E 005°11'0 0.0
2017-Jul-19 08:30N 60°06' E 005°11'0 0.0
2017-Jul-19 08:00N 60°06' E 005°11'2 3.2
2017-Jul-19 07:30N 60°08' E 005°12'611.4
2017-Jul-19 07:00N 60°13' E 005°18'3 5.6
2017-Jul-19 06:30N 60°10' E 005°16'3 6.5
2017-Jul-19 06:01N 60°08' E 005°12'611.6
2017-Jul-19 05:30N 60°13' E 005°18'3 5.3
2017-Jul-19 05:00N 60°10' E 005°17'4 7.1
2017-Jul-19 04:30N 60°07' E 005°12'1 2.5
2017-Jul-19 04:00N 60°06' E 005°11'0 0.0
2017-Jul-19 03:30N 60°06' E 005°11'0 0.0
2017-Jul-19 03:00N 60°06' E 005°11'0 0.0
2017-Jul-19 02:30N 60°06' E 005°11'0 0.0
2017-Jul-19 02:00N 60°06' E 005°11'0 0.0
2017-Jul-19 01:30N 60°06' E 005°11'0 0.0
2017-Jul-19 01:00N 60°06' E 005°11'0 0.0
2017-Jul-19 00:30N 60°06' E 005°11'0 0.0
2017-Jul-19 00:00N 60°06' E 005°11'0 0.0
2017-Jul-18 23:30N 60°06' E 005°11'0 0.0
2017-Jul-18 23:00N 60°06' E 005°11'0 0.0
2017-Jul-18 22:30N 60°06' E 005°11'0 0.0
2017-Jul-18 22:00N 60°06' E 005°11'0 0.0
2017-Jul-18 21:30N 60°06' E 005°11'0 0.0
2017-Jul-18 21:00N 60°06' E 005°11'0 0.0
2017-Jul-18 20:30N 60°06' E 005°11'0 0.0
2017-Jul-18 20:00N 60°06' E 005°11'0 0.0
2017-Jul-18 19:30N 60°06' E 005°11'0 0.0
2017-Jul-18 19:00N 60°06' E 005°11'0 0.0
2017-Jul-18 18:30N 60°06' E 005°11'0 0.0
2017-Jul-18 18:00N 60°06' E 005°11'0 0.0
2017-Jul-18 17:30N 60°06' E 005°11'3 5.3
2017-Jul-18 17:00N 60°08' E 005°14'511.0
2017-Jul-18 16:30N 60°13' E 005°17'4 8.4
2017-Jul-18 16:00N 60°09' E 005°16'0 0.8
2017-Jul-18 15:30N 60°09' E 005°15'5 9.2
2017-Jul-18 15:00N 60°13' E 005°17'4 4.4
2017-Jul-18 14:00N 60°09' E 005°15'4 8.8
2017-Jul-18 13:30N 60°13' E 005°17'510.2
2017-Jul-18 12:59N 60°08' E 005°14'2 3.4
2017-Jul-18 12:30N 60°10' E 005°16'3 6.4
2017-Jul-18 11:59N 60°13' E 005°18'611.4
2017-Jul-18 11:30N 60°08' E 005°13'2 4.0
2017-Jul-18 11:00N 60°06' E 005°11'0 0.0
2017-Jul-18 10:30N 60°06' E 005°11'0 0.0
2017-Jul-18 10:00N 60°06' E 005°11'0 0.0
2017-Jul-18 09:30N 60°06' E 005°11'0 0.0
2017-Jul-18 09:00N 60°06' E 005°11'0 0.0
2017-Jul-18 08:30N 60°06' E 005°11'0 0.0
2017-Jul-18 08:00N 60°06' E 005°11'2 3.7
2017-Jul-18 07:29N 60°08' E 005°13'511.0
2017-Jul-18 07:00N 60°13' E 005°18'3 5.1
2017-Jul-18 06:30N 60°10' E 005°17'3 6.3
2017-Jul-18 06:00N 60°08' E 005°13'611.1
2017-Jul-18 05:30N 60°13' E 005°18'3 5.4
2017-Jul-18 05:00N 60°10' E 005°16'3 6.6
2017-Jul-18 04:28N 60°07' E 005°12'1 2.5
2017-Jul-18 03:57N 60°06' E 005°11'0 0.0
2017-Jul-18 03:27N 60°06' E 005°11'0 0.0
2017-Jul-18 02:57N 60°06' E 005°11'0 0.0
2017-Jul-18 02:27N 60°06' E 005°11'0 0.0
2017-Jul-18 01:57N 60°06' E 005°11'0 0.0
2017-Jul-18 01:27N 60°06' E 005°11'0 0.0
2017-Jul-18 00:57N 60°06' E 005°11'0 0.0
2017-Jul-18 00:27N 60°06' E 005°11'0 0.0
2017-Jul-17 23:57N 60°06' E 005°11'0 0.0
2017-Jul-17 23:27N 60°06' E 005°11'0 0.0
2017-Jul-17 22:57N 60°06' E 005°11'0 0.0
2017-Jul-17 22:27N 60°06' E 005°11'0 0.0
2017-Jul-17 21:57N 60°06' E 005°11'0 0.0
2017-Jul-17 21:27N 60°06' E 005°11'0 0.0
2017-Jul-17 20:57N 60°06' E 005°11'0 0.0
2017-Jul-17 20:27N 60°06' E 005°11'0 0.0
2017-Jul-17 19:57N 60°06' E 005°11'0 0.0
2017-Jul-17 19:27N 60°06' E 005°11'0 0.0
2017-Jul-17 18:57N 60°06' E 005°11'0 0.0
2017-Jul-17 18:27N 60°06' E 005°11'0 0.0
2017-Jul-17 17:57N 60°06' E 005°11'0 0.0
2017-Jul-17 17:27N 60°06' E 005°11'2 5.4
2017-Jul-17 17:00N 60°08' E 005°14'610.8
2017-Jul-17 16:30N 60°13' E 005°17'5 9.8
2017-Jul-17 16:00N 60°09' E 005°15'0 0.6
2017-Jul-17 15:30N 60°09' E 005°16'5 9.4
2017-Jul-17 15:00N 60°13' E 005°17'510.5
2017-Jul-17 14:30N 60°08' E 005°14'1 1.9
2017-Jul-17 14:00N 60°09' E 005°16'4 8.9
2017-Jul-17 13:30N 60°13' E 005°17'510.2
2017-Jul-17 13:00N 60°08' E 005°15'2 3.0
2017-Jul-17 12:30N 60°10' E 005°16'3 6.9
2017-Jul-17 12:00N 60°13' E 005°18'611.0
2017-Jul-17 11:30N 60°08' E 005°13'2 4.2
2017-Jul-17 11:00N 60°06' E 005°11'0 0.0
2017-Jul-17 10:30N 60°06' E 005°11'0 0.0
2017-Jul-17 10:00N 60°06' E 005°11'0 0.0
2017-Jul-17 09:27N 60°06' E 005°11'0 0.0
2017-Jul-17 09:00N 60°06' E 005°11'0 0.0
2017-Jul-17 08:30N 60°06' E 005°11'0 0.0
2017-Jul-17 07:57N 60°06' E 005°11'2 4.6
2017-Jul-17 07:30N 60°08' E 005°13'611.2
2017-Jul-17 07:00N 60°13' E 005°18'3 6.7
2017-Jul-17 06:30N 60°10' E 005°16'3 5.1
2017-Jul-17 06:00N 60°08' E 005°13'511.0
2017-Jul-17 05:30N 60°13' E 005°18'3 5.7
2017-Jul-17 05:00N 60°10' E 005°17'4 7.7
2017-Jul-17 04:30N 60°07' E 005°12'1 1.8
2017-Jul-17 03:58N 60°06' E 005°11'0 0.0
2017-Jul-17 03:28N 60°06' E 005°11'0 0.0
2017-Jul-17 02:58N 60°06' E 005°11'0 0.0
2017-Jul-17 02:28N 60°06' E 005°11'0 0.0
2017-Jul-17 01:58N 60°06' E 005°11'0 0.0
2017-Jul-17 01:28N 60°06' E 005°11'0 0.0
2017-Jul-17 00:58N 60°06' E 005°11'0 0.0
2017-Jul-17 00:28N 60°06' E 005°11'0 0.0
2017-Jul-16 23:58N 60°06' E 005°11'0 0.0
2017-Jul-16 23:28N 60°06' E 005°11'0 0.0
2017-Jul-16 22:58N 60°06' E 005°11'0 0.0
2017-Jul-16 22:28N 60°06' E 005°11'0 0.0
2017-Jul-16 21:58N 60°06' E 005°11'0 0.0
2017-Jul-16 21:28N 60°06' E 005°11'0 0.0
2017-Jul-16 20:58N 60°06' E 005°11'0 0.0
2017-Jul-16 20:28N 60°06' E 005°11'0 0.0
2017-Jul-16 19:58N 60°06' E 005°11'0 0.0
2017-Jul-16 19:28N 60°06' E 005°11'0 0.0
2017-Jul-16 18:58N 60°06' E 005°11'1 2.7
2017-Jul-16 18:30N 60°07' E 005°12'611.7
2017-Jul-16 18:00N 60°12' E 005°18'3 5.3
2017-Jul-16 17:30N 60°10' E 005°16'2 4.4
2017-Jul-16 17:00N 60°08' E 005°14'611.5
2017-Jul-16 16:30N 60°13' E 005°17'4 8.5
2017-Jul-16 16:01N 60°09' E 005°16'1 1.4
2017-Jul-16 15:30N 60°09' E 005°15'5 9.9
2017-Jul-16 15:00N 60°13' E 005°17'510.7
2017-Jul-16 14:30N 60°08' E 005°14'1 2.7
2017-Jul-16 14:00N 60°09' E 005°16'4 8.4
2017-Jul-16 13:30N 60°13' E 005°17'510.3
2017-Jul-16 13:00N 60°08' E 005°14'2 5.0
2017-Jul-16 12:30N 60°07' E 005°11'0 0.6
2017-Jul-16 12:00N 60°06' E 005°11'0 0.0
2017-Jul-16 11:30N 60°06' E 005°11'0 0.0
2017-Jul-16 11:00N 60°06' E 005°11'0 0.0
2017-Jul-16 10:30N 60°06' E 005°11'0 0.0
2017-Jul-16 10:00N 60°06' E 005°11'0 0.0
2017-Jul-16 09:27N 60°06' E 005°11'0 0.0
2017-Jul-16 09:00N 60°06' E 005°11'0 0.0
2017-Jul-16 08:30N 60°06' E 005°11'0 0.0
2017-Jul-16 08:00N 60°06' E 005°11'0 0.0
2017-Jul-16 07:30N 60°06' E 005°11'0 0.0
2017-Jul-16 07:00N 60°06' E 005°11'0 0.0
2017-Jul-16 06:30N 60°06' E 005°11'0 0.0
2017-Jul-16 06:00N 60°06' E 005°11'0 0.0
2017-Jul-16 05:30N 60°06' E 005°11'0 0.0
2017-Jul-16 05:00N 60°06' E 005°11'0 0.0
2017-Jul-16 04:30N 60°06' E 005°11'0 0.0
2017-Jul-16 04:00N 60°06' E 005°11'0 0.0
2017-Jul-16 03:30N 60°06' E 005°11'0 0.0
2017-Jul-16 03:00N 60°06' E 005°11'0 0.0
2017-Jul-16 02:30N 60°06' E 005°11'0 0.0
2017-Jul-16 02:00N 60°06' E 005°11'0 0.0
2017-Jul-16 01:30N 60°06' E 005°11'0 0.0
2017-Jul-16 01:00N 60°06' E 005°11'0 0.0
2017-Jul-16 00:30N 60°06' E 005°11'0 0.0
2017-Jul-16 00:00N 60°06' E 005°11'0 0.0
2017-Jul-15 23:30N 60°06' E 005°11'0 0.0
2017-Jul-15 23:00N 60°06' E 005°11'0 0.0
2017-Jul-15 22:30N 60°06' E 005°11'0 0.0
2017-Jul-15 22:00N 60°06' E 005°11'0 0.0
2017-Jul-15 21:30N 60°06' E 005°11'0 0.0
2017-Jul-15 21:00N 60°06' E 005°11'0 0.0
2017-Jul-15 20:30N 60°06' E 005°11'0 0.0
2017-Jul-15 20:00N 60°06' E 005°11'0 0.0
2017-Jul-15 19:30N 60°06' E 005°11'0 0.0
2017-Jul-15 19:00N 60°06' E 005°11'0 0.0
2017-Jul-15 18:30N 60°06' E 005°11'0 0.0
2017-Jul-15 18:00N 60°06' E 005°11'0 0.0
2017-Jul-15 17:30N 60°06' E 005°11'0 0.0
2017-Jul-15 17:00N 60°06' E 005°11'0 0.0
2017-Jul-15 16:30N 60°06' E 005°11'0 0.0
2017-Jul-15 16:00N 60°06' E 005°11'0 0.0
2017-Jul-15 15:30N 60°06' E 005°11'0 0.0
2017-Jul-15 15:00N 60°06' E 005°11'0 0.0
2017-Jul-15 14:00N 60°06' E 005°11'0 0.0
2017-Jul-15 13:30N 60°06' E 005°11'0 0.0
2017-Jul-15 13:00N 60°06' E 005°11'0 0.0
2017-Jul-15 12:30N 60°06' E 005°11'0 0.0
2017-Jul-15 12:00N 60°06' E 005°11'0 0.0
2017-Jul-15 11:30N 60°06' E 005°11'0 0.0
2017-Jul-15 11:00N 60°06' E 005°11'0 0.0
2017-Jul-15 10:30N 60°06' E 005°11'0 0.0
2017-Jul-15 10:00N 60°06' E 005°11'0 0.0
2017-Jul-15 09:30N 60°06' E 005°11'0 0.0
2017-Jul-15 09:00N 60°06' E 005°11'0 0.0
2017-Jul-15 08:30N 60°06' E 005°11'0 0.0
2017-Jul-15 08:00N 60°06' E 005°11'0 0.0
2017-Jul-15 07:30N 60°06' E 005°11'0 0.0
2017-Jul-15 07:00N 60°06' E 005°11'0 0.0
2017-Jul-15 06:30N 60°06' E 005°11'0 0.0
2017-Jul-15 06:00N 60°06' E 005°11'0 0.0
2017-Jul-15 05:30N 60°06' E 005°11'0 0.0
2017-Jul-15 05:00N 60°06' E 005°11'0 0.0
2017-Jul-15 04:30N 60°06' E 005°11'0 0.0
2017-Jul-15 04:00N 60°06' E 005°11'0 0.0
2017-Jul-15 03:30N 60°06' E 005°11'0 0.0
2017-Jul-15 03:00N 60°06' E 005°11'0 0.0
2017-Jul-15 02:30N 60°06' E 005°11'0 0.0
2017-Jul-15 02:00N 60°06' E 005°11'0 0.0
2017-Jul-15 01:30N 60°06' E 005°11'0 0.0
2017-Jul-15 01:00N 60°06' E 005°11'0 0.0
2017-Jul-15 00:30N 60°06' E 005°11'0 0.0
2017-Jul-15 00:00N 60°06' E 005°11'0 0.0
2017-Jul-14 23:30N 60°06' E 005°11'0 0.0
2017-Jul-14 23:00N 60°06' E 005°11'0 0.0
2017-Jul-14 22:30N 60°06' E 005°11'0 0.0
2017-Jul-14 22:00N 60°06' E 005°11'0 0.0
2017-Jul-14 21:30N 60°06' E 005°11'0 0.0
2017-Jul-14 21:00N 60°06' E 005°11'0 0.0
2017-Jul-14 20:30N 60°06' E 005°11'0 0.0
2017-Jul-14 20:00N 60°06' E 005°11'0 0.0
2017-Jul-14 19:30N 60°06' E 005°11'0 0.0
2017-Jul-14 19:00N 60°06' E 005°11'0 0.0
2017-Jul-14 18:30N 60°06' E 005°11'0 0.0
2017-Jul-14 18:00N 60°06' E 005°11'0 0.0
2017-Jul-14 17:30N 60°06' E 005°11'2 4.8
2017-Jul-14 17:00N 60°08' E 005°14'611.1
2017-Jul-14 16:30N 60°13' E 005°17'4 8.3
2017-Jul-14 16:00N 60°09' E 005°16'1 1.8
2017-Jul-14 15:30N 60°09' E 005°15'5 9.8
2017-Jul-14 15:00N 60°13' E 005°17'510.1
2017-Jul-14 14:30N 60°09' E 005°15'0 0.8
2017-Jul-14 14:00N 60°09' E 005°15'2 0.7
2017-Jul-14 11:28N 60°08' E 005°12'2 3.4
2017-Jul-14 11:00N 60°06' E 005°11'0 0.0
2017-Jul-14 10:29N 60°06' E 005°11'0 0.0
2017-Jul-14 09:59N 60°06' E 005°11'0 0.0
2017-Jul-14 09:29N 60°06' E 005°11'0 0.0
2017-Jul-14 08:59N 60°06' E 005°11'0 0.0
2017-Jul-14 08:29N 60°06' E 005°11'0 0.0
2017-Jul-14 07:59N 60°06' E 005°11'2 3.9
2017-Jul-14 07:30N 60°08' E 005°13'510.9
2017-Jul-14 07:00N 60°13' E 005°18'3 5.5
2017-Jul-14 06:30N 60°10' E 005°16'3 5.7
2017-Jul-14 06:00N 60°08' E 005°13'611.0
2017-Jul-14 05:30N 60°13' E 005°18'3 5.5
2017-Jul-14 05:00N 60°10' E 005°17'4 7.2
2017-Jul-14 04:30N 60°07' E 005°12'1 2.6
2017-Jul-14 04:00N 60°06' E 005°11'0 0.0
2017-Jul-14 03:28N 60°06' E 005°11'0 0.0
2017-Jul-14 02:58N 60°06' E 005°11'0 0.0
2017-Jul-14 02:28N 60°06' E 005°11'0 0.0
2017-Jul-14 01:58N 60°06' E 005°11'0 0.0
2017-Jul-14 01:28N 60°06' E 005°11'0 0.0
2017-Jul-14 00:58N 60°06' E 005°11'0 0.0
2017-Jul-14 00:28N 60°06' E 005°11'0 0.0
2017-Jul-13 23:58N 60°06' E 005°11'0 0.0
2017-Jul-13 23:28N 60°06' E 005°11'0 0.0
2017-Jul-13 22:58N 60°06' E 005°11'0 0.0
2017-Jul-13 22:25N 60°06' E 005°11'0 0.0
2017-Jul-13 21:58N 60°06' E 005°11'0 0.0
2017-Jul-13 21:28N 60°06' E 005°11'0 0.0
2017-Jul-13 20:58N 60°06' E 005°11'0 0.0
2017-Jul-13 20:28N 60°06' E 005°11'0 0.0
2017-Jul-13 19:58N 60°06' E 005°11'0 0.0
2017-Jul-13 19:28N 60°06' E 005°11'0 0.0
2017-Jul-13 18:58N 60°06' E 005°11'0 0.0
2017-Jul-13 18:28N 60°06' E 005°11'0 0.0
2017-Jul-13 17:58N 60°06' E 005°11'0 0.0
2017-Jul-13 17:28N 60°06' E 005°11'3 5.4
2017-Jul-13 17:00N 60°08' E 005°14'510.9
2017-Jul-13 16:30N 60°13' E 005°17'4 8.5
2017-Jul-13 16:00N 60°09' E 005°16'1 1.3
2017-Jul-13 15:30N 60°09' E 005°15'5 9.6
2017-Jul-13 15:00N 60°13' E 005°17'510.1
2017-Jul-13 14:30N 60°09' E 005°15'1 2.6
2017-Jul-13 13:59N 60°10' E 005°16'4 7.5
2017-Jul-13 13:30N 60°13' E 005°17'611.4
2017-Jul-13 13:00N 60°08' E 005°14'2 4.3
2017-Jul-13 12:30N 60°10' E 005°16'3 6.5
2017-Jul-13 12:00N 60°13' E 005°18'611.1
2017-Jul-13 11:30N 60°08' E 005°13'2 3.7
2017-Jul-13 10:59N 60°06' E 005°11'0 0.0
2017-Jul-13 10:31N 60°06' E 005°11'0 0.0
2017-Jul-13 10:00N 60°06' E 005°11'0 0.0
2017-Jul-13 09:30N 60°06' E 005°11'0 0.0
2017-Jul-13 09:00N 60°06' E 005°11'0 0.0
2017-Jul-13 08:30N 60°06' E 005°11'0 0.0
2017-Jul-13 08:00N 60°06' E 005°11'2 3.5
2017-Jul-13 07:30N 60°08' E 005°13'611.2
2017-Jul-13 07:00N 60°13' E 005°18'3 5.2
2017-Jul-13 06:30N 60°10' E 005°17'3 6.3
2017-Jul-13 06:00N 60°08' E 005°13'611.2
2017-Jul-13 05:30N 60°13' E 005°18'3 5.3
2017-Jul-13 05:00N 60°10' E 005°16'3 6.8
2017-Jul-13 04:30N 60°07' E 005°12'1 2.5
2017-Jul-13 03:59N 60°06' E 005°11'0 0.0
2017-Jul-13 03:29N 60°06' E 005°11'0 0.0
2017-Jul-13 02:59N 60°06' E 005°11'0 0.0
2017-Jul-13 02:29N 60°06' E 005°11'0 0.0
2017-Jul-13 01:56N 60°06' E 005°11'0 0.0
2017-Jul-13 01:29N 60°06' E 005°11'0 0.0
2017-Jul-13 00:59N 60°06' E 005°11'0 0.0
2017-Jul-13 00:29N 60°06' E 005°11'0 0.0
2017-Jul-12 23:59N 60°06' E 005°11'0 0.0
2017-Jul-12 23:29N 60°06' E 005°11'0 0.0
2017-Jul-12 22:59N 60°06' E 005°11'0 0.0
2017-Jul-12 22:29N 60°06' E 005°11'0 0.0
2017-Jul-12 21:59N 60°06' E 005°11'0 0.0
2017-Jul-12 21:29N 60°06' E 005°11'0 0.0
2017-Jul-12 20:59N 60°06' E 005°11'  

Dump ship's entire track history